sensor_id;sensor_type;location;lat;lon;timestamp;pressure;altitude;pressure_sealevel;temperature;humidity
11936;BME280;6027;48.576;9.180;2023-02-01T00:00:21;97575.44;;;2.58;100.00
11936;BME280;6027;48.576;9.180;2023-02-01T00:02:46;97582.47;;;2.58;100.00
11936;BME280;6027;48.576;9.180;2023-02-01T00:05:12;97570.56;;;2.54;100.00
11936;BME280;6027;48.576;9.180;2023-02-01T00:07:38;97575.91;;;2.52;100.00
11936;BME280;6027;48.576;9.180;2023-02-01T00:10:05;97572.22;;;2.43;100.00
11936;BME280;6027;48.576;9.180;2023-02-01T00:12:31;97568.53;;;2.46;100.00
11936;BME280;6027;48.576;9.180;2023-02-01T00:14:57;97571.16;;;2.46;100.00
11936;BME280;6027;48.576;9.180;2023-02-01T00:17:23;97577.09;;;2.48;100.00
11936;BME280;6027;48.576;9.180;2023-02-01T00:19:48;97571.75;;;2.50;100.00
11936;BME280;6027;48.576;9.180;2023-02-01T00:22:13;97579.81;;;2.47;100.00
11936;BME280;6027;48.576;9.180;2023-02-01T00:24:39;97566.88;;;2.45;100.00
11936;BME280;6027;48.576;9.180;2023-02-01T00:27:04;97569.25;;;2.48;100.00
11936;BME280;6027;48.576;9.180;2023-02-01T00:29:30;97564.38;;;2.43;100.00
11936;BME280;6027;48.576;9.180;2023-02-01T00:31:55;97559.38;;;2.40;100.00
11936;BME280;6027;48.576;9.180;2023-02-01T00:34:21;97554.41;;;2.49;100.00
11936;BME280;6027;48.576;9.180;2023-02-01T00:36:47;97552.13;;;2.44;100.00
11936;BME280;6027;48.576;9.180;2023-02-01T00:39:13;97550.25;;;2.46;100.00
11936;BME280;6027;48.576;9.180;2023-02-01T00:41:39;97550.25;;;2.46;100.00
11936;BME280;6027;48.576;9.180;2023-02-01T00:44:05;97554.16;;;2.52;100.00
11936;BME280;6027;48.576;9.180;2023-02-01T00:46:31;97550.97;;;2.48;100.00
11936;BME280;6027;48.576;9.180;2023-02-01T00:48:57;97548.34;;;2.48;100.00
11936;BME280;6027;48.576;9.180;2023-02-01T00:51:25;97541.09;;;2.52;100.00
11936;BME280;6027;48.576;9.180;2023-02-01T00:53:51;97546.69;;;2.58;100.00
11936;BME280;6027;48.576;9.180;2023-02-01T00:56:17;97538.63;;;2.61;100.00
11936;BME280;6027;48.576;9.180;2023-02-01T00:58:43;97534.56;;;2.57;100.00
11936;BME280;6027;48.576;9.180;2023-02-01T01:01:11;97531.72;;;2.60;100.00
11936;BME280;6027;48.576;9.180;2023-02-01T01:03:40;97531.13;;;2.57;100.00
11936;BME280;6027;48.576;9.180;2023-02-01T01:06:08;97525.06;;;2.56;100.00
11936;BME280;6027;48.576;9.180;2023-02-01T01:08:35;97529.56;;;2.54;100.00
11936;BME280;6027;48.576;9.180;2023-02-01T01:11:16;97529.56;;;2.54;100.00
11936;BME280;6027;48.576;9.180;2023-02-01T01:13:42;97536.47;;;2.55;100.00
11936;BME280;6027;48.576;9.180;2023-02-01T01:16:09;97539.41;;;2.51;100.00
11936;BME280;6027;48.576;9.180;2023-02-01T01:18:36;97527.06;;;2.53;100.00
11936;BME280;6027;48.576;9.180;2023-02-01T01:21:03;97526.72;;;2.57;100.00
11936;BME280;6027;48.576;9.180;2023-02-01T01:23:29;97537.19;;;2.57;100.00
11936;BME280;6027;48.576;9.180;2023-02-01T01:25:54;97528.50;;;2.57;100.00
11936;BME280;6027;48.576;9.180;2023-02-01T01:28:20;97522.44;;;2.56;100.00
11936;BME280;6027;48.576;9.180;2023-02-01T01:30:45;97522.09;;;2.61;100.00
11936;BME280;6027;48.576;9.180;2023-02-01T01:33:10;97516.03;;;2.60;100.00
11936;BME280;6027;48.576;9.180;2023-02-01T01:35:36;97517.81;;;2.60;100.00
11936;BME280;6027;48.576;9.180;2023-02-01T01:38:01;97511.75;;;2.59;100.00
11936;BME280;6027;48.576;9.180;2023-02-01T01:40:28;97492.28;;;2.63;100.00
11936;BME280;6027;48.576;9.180;2023-02-01T01:42:54;97488.13;;;2.61;100.00
11936;BME280;6027;48.576;9.180;2023-02-01T01:45:33;97499.78;;;2.68;100.00
11936;BME280;6027;48.576;9.180;2023-02-01T01:48:03;97497.16;;;2.68;100.00
11936;BME280;6027;48.576;9.180;2023-02-01T01:51:03;97496.34;;;2.67;100.00
11936;BME280;6027;48.576;9.180;2023-02-01T01:53:40;97505.34;;;2.74;100.00
11936;BME280;6027;48.576;9.180;2023-02-01T01:56:08;97493.59;;;2.69;100.00
11936;BME280;6027;48.576;9.180;2023-02-01T01:58:33;97488.00;;;2.73;100.00
11936;BME280;6027;48.576;9.180;2023-02-01T02:00:59;97489.56;;;2.76;100.00
11936;BME280;6027;48.576;9.180;2023-02-01T02:03:57;97474.56;;;2.78;100.00
11936;BME280;6027;48.576;9.180;2023-02-01T02:08:55;97484.81;;;2.81;100.00
11936;BME280;6027;48.576;9.180;2023-02-01T02:11:21;97487.41;;;2.81;100.00
11936;BME280;6027;48.576;9.180;2023-02-01T02:13:50;97484.81;;;2.81;100.00
11936;BME280;6027;48.576;9.180;2023-02-01T02:19:32;97479.94;;;2.88;100.00
11936;BME280;6027;48.576;9.180;2023-02-01T02:30:36;97477.31;;;2.99;100.00
11936;BME280;6027;48.576;9.180;2023-02-01T02:39:08;97478.63;;;3.04;100.00
11936;BME280;6027;48.576;9.180;2023-02-01T02:47:00;97467.91;;;3.07;100.00
11936;BME280;6027;48.576;9.180;2023-02-01T02:52:44;97467.75;;;3.09;100.00
11936;BME280;6027;48.576;9.180;2023-02-01T02:55:30;97462.69;;;3.07;100.00
11936;BME280;6027;48.576;9.180;2023-02-01T02:57:58;97471.09;;;3.11;100.00
11936;BME280;6027;48.576;9.180;2023-02-01T03:00:43;97465.88;;;3.11;100.00
11936;BME280;6027;48.576;9.180;2023-02-01T03:03:27;97459.22;;;3.07;100.00
11936;BME280;6027;48.576;9.180;2023-02-01T03:06:16;97451.38;;;3.07;100.00
11936;BME280;6027;48.576;9.180;2023-02-01T03:08:43;97449.00;;;3.04;100.00
11936;BME280;6027;48.576;9.180;2023-02-01T03:11:12;97451.22;;;3.08;100.00
11936;BME280;6027;48.576;9.180;2023-02-01T03:19:25;97470.06;;;3.02;100.00
11936;BME280;6027;48.576;9.180;2023-02-01T03:22:02;97462.09;;;3.04;100.00
11936;BME280;6027;48.576;9.180;2023-02-01T03:24:41;97468.88;;;3.06;100.00
11936;BME280;6027;48.576;9.180;2023-02-01T03:30:23;97435.94;;;3.04;100.00
11936;BME280;6027;48.576;9.180;2023-02-01T03:32:57;97444.22;;;3.09;100.00
11936;BME280;6027;48.576;9.180;2023-02-01T03:37:54;97447.66;;;3.09;100.00
11936;BME280;6027;48.576;9.180;2023-02-01T03:40:22;97449.09;;;3.13;100.00
11936;BME280;6027;48.576;9.180;2023-02-01T03:42:52;97447.44;;;3.12;100.00
11936;BME280;6027;48.576;9.180;2023-02-01T03:45:27;97444.94;;;3.11;100.00
11936;BME280;6027;48.576;9.180;2023-02-01T03:47:56;97449.44;;;3.09;100.00
11936;BME280;6027;48.576;9.180;2023-02-01T03:50:23;97451.94;;;3.10;100.00
11936;BME280;6027;48.576;9.180;2023-02-01T03:52:58;97444.94;;;3.11;100.00
11936;BME280;6027;48.576;9.180;2023-02-01T03:55:25;97450.88;;;3.13;100.00
11936;BME280;6027;48.576;9.180;2023-02-01T03:58:12;97438.88;;;3.10;100.00
11936;BME280;6027;48.576;9.180;2023-02-01T04:00:38;97436.13;;;3.12;100.00
11936;BME280;6027;48.576;9.180;2023-02-01T04:03:05;97431.97;;;3.09;100.00
11936;BME280;6027;48.576;9.180;2023-02-01T04:05:32;97421.97;;;3.15;100.00
11936;BME280;6027;48.576;9.180;2023-02-01T04:07:57;97423.75;;;3.14;100.00
11936;BME280;6027;48.576;9.180;2023-02-01T04:10:43;97408.66;;;3.18;100.00
11936;BME280;6027;48.576;9.180;2023-02-01T04:13:09;97411.97;;;3.20;100.00
11936;BME280;6027;48.576;9.180;2023-02-01T04:15:35;97407.59;;;3.20;100.00
11936;BME280;6027;48.576;9.180;2023-02-01T04:18:00;97412.56;;;3.23;100.00
11936;BME280;6027;48.576;9.180;2023-02-01T04:20:26;97409.25;;;3.21;100.00
11936;BME280;6027;48.576;9.180;2023-02-01T04:22:51;97398.66;;;3.23;100.00
11936;BME280;6027;48.576;9.180;2023-02-01T04:25:17;97392.97;;;3.18;100.00
11936;BME280;6027;48.576;9.180;2023-02-01T04:27:42;97400.69;;;3.19;100.00
11936;BME280;6027;48.576;9.180;2023-02-01T04:30:08;97415.91;;;3.25;100.00
11936;BME280;6027;48.576;9.180;2023-02-01T04:32:36;97421.69;;;3.29;100.00
11936;BME280;6027;48.576;9.180;2023-02-01T04:35:03;97423.47;;;3.28;100.00
11936;BME280;6027;48.576;9.180;2023-02-01T04:37:28;97428.16;;;3.25;100.00
11936;BME280;6027;48.576;9.180;2023-02-01T04:39:54;97435.16;;;3.24;100.00
11936;BME280;6027;48.576;9.180;2023-02-01T04:42:20;97442.75;;;3.27;100.00
11936;BME280;6027;48.576;9.180;2023-02-01T04:44:45;97442.91;;;3.26;100.00
11936;BME280;6027;48.576;9.180;2023-02-01T04:47:11;97428.88;;;3.27;100.00
11936;BME280;6027;48.576;9.180;2023-02-01T04:49:36;97437.78;;;3.24;100.00
11936;BME280;6027;48.576;9.180;2023-02-01T04:52:02;97433.50;;;3.23;100.00
11936;BME280;6027;48.576;9.180;2023-02-01T04:54:28;97409.97;;;3.23;100.00
11936;BME280;6027;48.576;9.180;2023-02-01T04:56:53;97410.19;;;3.20;100.00
11936;BME280;6027;48.576;9.180;2023-02-01T04:59:19;97405.09;;;3.19;100.00
11936;BME280;6027;48.576;9.180;2023-02-01T05:01:44;97395.69;;;3.16;100.00
11936;BME280;6027;48.576;9.180;2023-02-01T05:04:09;97412.81;;;3.20;100.00
11936;BME280;6027;48.576;9.180;2023-02-01T05:06:35;97409.00;;;3.24;100.00
11936;BME280;6027;48.576;9.180;2023-02-01T05:09:00;97410.91;;;3.22;100.00
11936;BME280;6027;48.576;9.180;2023-02-01T05:11:26;97415.06;;;3.25;100.00
11936;BME280;6027;48.576;9.180;2023-02-01T05:14:09;97418.28;;;3.17;100.00
11936;BME280;6027;48.576;9.180;2023-02-01T05:16:35;97418.16;;;3.19;100.00
11936;BME280;6027;48.576;9.180;2023-02-01T05:19:01;97406.63;;;3.21;100.00
11936;BME280;6027;48.576;9.180;2023-02-01T05:21:26;97409.84;;;3.25;100.00
11936;BME280;6027;48.576;9.180;2023-02-01T05:23:51;97397.13;;;3.20;100.00
11936;BME280;6027;48.576;9.180;2023-02-01T05:26:48;97413.53;;;3.22;100.00
11936;BME280;6027;48.576;9.180;2023-02-01T05:29:14;97409.00;;;3.24;100.00
11936;BME280;6027;48.576;9.180;2023-02-01T05:31:40;97405.56;;;3.24;100.00
11936;BME280;6027;48.576;9.180;2023-02-01T05:34:06;97410.66;;;3.25;100.00
11936;BME280;6027;48.576;9.180;2023-02-01T05:36:32;97410.16;;;3.31;100.00
11936;BME280;6027;48.576;9.180;2023-02-01T05:38:58;97409.72;;;3.26;100.00
11936;BME280;6027;48.576;9.180;2023-02-01T05:41:23;97405.88;;;3.30;100.00
11936;BME280;6027;48.576;9.180;2023-02-01T05:43:49;97409.19;;;3.32;100.00
11936;BME280;6027;48.576;9.180;2023-02-01T05:46:14;97425.59;;;3.34;100.00
11936;BME280;6027;48.576;9.180;2023-02-01T05:48:41;97431.44;;;3.38;100.00
11936;BME280;6027;48.576;9.180;2023-02-01T05:51:06;97430.47;;;3.39;100.00
11936;BME280;6027;48.576;9.180;2023-02-01T05:53:32;97423.94;;;3.33;100.00
11936;BME280;6027;48.576;9.180;2023-02-01T05:55:57;97434.75;;;3.40;100.00
11936;BME280;6027;48.576;9.180;2023-02-01T05:58:23;97438.91;;;3.42;100.00
11936;BME280;6027;48.576;9.180;2023-02-01T06:00:49;97443.44;;;3.40;100.00
11936;BME280;6027;48.576;9.180;2023-02-01T06:03:14;97442.38;;;3.43;100.00
11936;BME280;6027;48.576;9.180;2023-02-01T06:05:40;97438.09;;;3.42;100.00
11936;BME280;6027;48.576;9.180;2023-02-01T06:08:05;97436.91;;;3.46;100.00
11936;BME280;6027;48.576;9.180;2023-02-01T06:10:33;97439.88;;;3.41;100.00
11936;BME280;6027;48.576;9.180;2023-02-01T06:12:59;97442.94;;;3.46;100.00
11936;BME280;6027;48.576;9.180;2023-02-01T06:15:25;97444.88;;;3.44;100.00
11936;BME280;6027;48.576;9.180;2023-02-01T06:17:50;97441.16;;;3.47;100.00
11936;BME280;6027;48.576;9.180;2023-02-01T06:20:16;97443.91;;;3.45;100.00
11936;BME280;6027;48.576;9.180;2023-02-01T06:25:13;97459.03;;;3.42;100.00
11936;BME280;6027;48.576;9.180;2023-02-01T06:27:39;97448.56;;;3.42;100.00
11936;BME280;6027;48.576;9.180;2023-02-01T06:30:05;97449.50;;;3.41;100.00
11936;BME280;6027;48.576;9.180;2023-02-01T06:32:31;97446.38;;;3.47;100.00
11936;BME280;6027;48.576;9.180;2023-02-01T06:35:00;97445.81;;;3.43;100.00
11936;BME280;6027;48.576;9.180;2023-02-01T06:37:25;97450.09;;;3.44;100.00
11936;BME280;6027;48.576;9.180;2023-02-01T06:39:52;97453.16;;;3.50;100.00
11936;BME280;6027;48.576;9.180;2023-02-01T06:42:18;97463.38;;;3.53;100.00
11936;BME280;6027;48.576;9.180;2023-02-01T06:44:43;97459.63;;;3.45;100.00
11936;BME280;6027;48.576;9.180;2023-02-01T06:47:09;97465.09;;;3.42;100.00
11936;BME280;6027;48.576;9.180;2023-02-01T06:49:34;97446.66;;;3.33;100.00
11936;BME280;6027;48.576;9.180;2023-02-01T06:52:00;97430.78;;;3.25;100.00
11936;BME280;6027;48.576;9.180;2023-02-01T06:54:26;97424.34;;;3.18;100.00
11936;BME280;6027;48.576;9.180;2023-02-01T06:56:52;97420.31;;;3.13;100.00
11936;BME280;6027;48.576;9.180;2023-02-01T06:59:17;97418.06;;;3.09;100.00
11936;BME280;6027;48.576;9.180;2023-02-01T07:01:42;97417.94;;;3.10;100.00
11936;BME280;6027;48.576;9.180;2023-02-01T07:04:10;97401.69;;;3.07;100.00
11936;BME280;6027;48.576;9.180;2023-02-01T07:06:37;97415.72;;;3.06;100.00
11936;BME280;6027;48.576;9.180;2023-02-01T07:09:02;97410.22;;;3.09;100.00
11936;BME280;6027;48.576;9.180;2023-02-01T07:11:27;97415.19;;;3.12;100.00
11936;BME280;6027;48.576;9.180;2023-02-01T07:13:53;97419.72;;;3.10;100.00
11936;BME280;6027;48.576;9.180;2023-02-01T07:16:19;97432.81;;;3.10;100.00
11936;BME280;6027;48.576;9.180;2023-02-01T07:18:45;97435.53;;;3.08;100.00
11936;BME280;6027;48.576;9.180;2023-02-01T07:21:11;97433.28;;;3.15;100.00
11936;BME280;6027;48.576;9.180;2023-02-01T07:23:37;97450.03;;;3.12;100.00
11936;BME280;6027;48.576;9.180;2023-02-01T07:26:06;97456.47;;;3.20;100.00
11936;BME280;6027;48.576;9.180;2023-02-01T07:28:34;97458.84;;;3.23;100.00
11936;BME280;6027;48.576;9.180;2023-02-01T07:31:07;97456.94;;;3.25;100.00
11936;BME280;6027;48.576;9.180;2023-02-01T07:33:33;97450.03;;;3.24;100.00
11936;BME280;6027;48.576;9.180;2023-02-01T07:36:01;97457.19;;;3.22;100.00
11936;BME280;6027;48.576;9.180;2023-02-01T07:38:27;97470.03;;;3.25;100.00
11936;BME280;6027;48.576;9.180;2023-02-01T07:41:00;97477.03;;;3.24;100.00
11936;BME280;6027;48.576;9.180;2023-02-01T07:43:27;97473.09;;;3.30;100.00
11936;BME280;6027;48.576;9.180;2023-02-01T07:45:53;97456.81;;;3.26;100.00
11936;BME280;6027;48.576;9.180;2023-02-01T07:48:22;97470.59;;;3.28;100.00
11936;BME280;6027;48.576;9.180;2023-02-01T07:50:48;97486.28;;;3.28;100.00
11936;BME280;6027;48.576;9.180;2023-02-01T07:53:13;97488.66;;;3.31;100.00
11936;BME280;6027;48.576;9.180;2023-02-01T07:55:40;97485.94;;;3.33;100.00
11936;BME280;6027;48.576;9.180;2023-02-01T07:58:06;97488.19;;;3.37;100.00
11936;BME280;6027;48.576;9.180;2023-02-01T08:00:32;97486.41;;;3.38;100.00
11936;BME280;6027;48.576;9.180;2023-02-01T08:03:17;97472.00;;;3.32;100.00
11936;BME280;6027;48.576;9.180;2023-02-01T08:05:43;97481.88;;;3.40;100.00
11936;BME280;6027;48.576;9.180;2023-02-01T08:08:09;97480.81;;;3.42;100.00
11936;BME280;6027;48.576;9.180;2023-02-01T08:10:34;97482.19;;;3.46;100.00
11936;BME280;6027;48.576;9.180;2023-02-01T08:13:01;97478.63;;;3.47;100.00
11936;BME280;6027;48.576;9.180;2023-02-01T08:15:27;97477.59;;;3.39;100.00
11936;BME280;6027;48.576;9.180;2023-02-01T08:17:53;97477.13;;;3.45;100.00
11936;BME280;6027;48.576;9.180;2023-02-01T08:20:21;97486.63;;;3.46;100.00
11936;BME280;6027;48.576;9.180;2023-02-01T08:22:51;97480.28;;;3.48;100.00
11936;BME280;6027;48.576;9.180;2023-02-01T08:25:17;97477.66;;;3.48;100.00
11936;BME280;6027;48.576;9.180;2023-02-01T08:27:42;97478.38;;;3.51;100.00
11936;BME280;6027;48.576;9.180;2023-02-01T08:30:09;97486.25;;;3.51;100.00
11936;BME280;6027;48.576;9.180;2023-02-01T08:32:35;97480.75;;;3.54;100.00
11936;BME280;6027;48.576;9.180;2023-02-01T08:35:01;97484.78;;;3.58;100.00
11936;BME280;6027;48.576;9.180;2023-02-01T08:37:27;97486.34;;;3.60;100.00
11936;BME280;6027;48.576;9.180;2023-02-01T08:39:52;97467.19;;;3.60;100.00
11936;BME280;6027;48.576;9.180;2023-02-01T08:42:18;97468.59;;;3.64;100.00
11936;BME280;6027;48.576;9.180;2023-02-01T08:45:03;97460.47;;;3.67;100.00
11936;BME280;6027;48.576;9.180;2023-02-01T08:47:30;97467.25;;;3.69;100.00
11936;BME280;6027;48.576;9.180;2023-02-01T08:49:55;97483.66;;;3.71;100.00
11936;BME280;6027;48.576;9.180;2023-02-01T08:52:21;97485.69;;;3.79;100.00
11936;BME280;6027;48.576;9.180;2023-02-01T08:54:46;97481.03;;;3.83;100.00
11936;BME280;6027;48.576;9.180;2023-02-01T08:57:12;97493.22;;;3.93;100.00
11936;BME280;6027;48.576;9.180;2023-02-01T08:59:37;97503.72;;;3.93;100.00
11936;BME280;6027;48.576;9.180;2023-02-01T09:02:03;97508.69;;;3.96;100.00
11936;BME280;6027;48.576;9.180;2023-02-01T09:04:28;97508.69;;;3.96;100.00
11936;BME280;6027;48.576;9.180;2023-02-01T09:06:54;97507.75;;;3.97;100.00
11936;BME280;6027;48.576;9.180;2023-02-01T09:09:21;97508.00;;;3.94;100.00
11936;BME280;6027;48.576;9.180;2023-02-01T09:11:47;97505.50;;;3.93;100.00
11936;BME280;6027;48.576;9.180;2023-02-01T09:14:12;97499.91;;;3.86;100.00
11936;BME280;6027;48.576;9.180;2023-02-01T09:16:38;97506.47;;;3.92;100.00
11936;BME280;6027;48.576;9.180;2023-02-01T09:19:03;97511.69;;;3.92;100.00
11936;BME280;6027;48.576;9.180;2023-02-01T09:21:29;97511.81;;;3.90;100.00
11936;BME280;6027;48.576;9.180;2023-02-01T09:23:54;97514.69;;;3.87;100.00
11936;BME280;6027;48.576;9.180;2023-02-01T09:26:21;97520.19;;;3.84;100.00
11936;BME280;6027;48.576;9.180;2023-02-01T09:28:46;97513.84;;;3.87;100.00
11936;BME280;6027;48.576;9.180;2023-02-01T09:31:12;97513.97;;;3.85;100.00
11936;BME280;6027;48.576;9.180;2023-02-01T09:33:37;97515.38;;;3.89;100.00
11936;BME280;6027;48.576;9.180;2023-02-01T09:36:04;97519.69;;;3.90;100.00
11936;BME280;6027;48.576;9.180;2023-02-01T09:38:30;97518.97;;;3.88;100.00
11936;BME280;6027;48.576;9.180;2023-02-01T09:40:56;97523.00;;;3.92;100.00
11936;BME280;6027;48.576;9.180;2023-02-01T09:43:45;97530.03;;;3.92;100.00
11936;BME280;6027;48.576;9.180;2023-02-01T09:46:31;97529.91;;;3.93;100.00
11936;BME280;6027;48.576;9.180;2023-02-01T09:49:01;97523.84;;;3.93;100.00
11936;BME280;6027;48.576;9.180;2023-02-01T09:51:33;97530.88;;;3.92;100.00
11936;BME280;6027;48.576;9.180;2023-02-01T09:54:06;97537.66;;;3.95;100.00
11936;BME280;6027;48.576;9.180;2023-02-01T10:01:59;97526.22;;;3.96;100.00
11936;BME280;6027;48.576;9.180;2023-02-01T10:04:27;97530.00;;;4.03;100.00
11936;BME280;6027;48.576;9.180;2023-02-01T10:09:44;97534.53;;;4.01;100.00
11936;BME280;6027;48.576;9.180;2023-02-01T10:18:42;97536.72;;;4.16;100.00
11936;BME280;6027;48.576;9.180;2023-02-01T10:21:23;97540.88;;;4.19;100.00
11936;BME280;6027;48.576;9.180;2023-02-01T10:26:37;97544.09;;;4.23;100.00
11936;BME280;6027;48.576;9.180;2023-02-01T10:29:15;97542.59;;;4.30;100.00
11936;BME280;6027;48.576;9.180;2023-02-01T10:31:42;97557.63;;;4.28;100.00
11936;BME280;6027;48.576;9.180;2023-02-01T10:39:16;97569.75;;;4.40;100.00
11936;BME280;6027;48.576;9.180;2023-02-01T10:41:41;97567.13;;;4.40;100.00
11936;BME280;6027;48.576;9.180;2023-02-01T10:44:17;97558.97;;;4.43;100.00
11936;BME280;6027;48.576;9.180;2023-02-01T10:46:43;97560.78;;;4.42;100.00
11936;BME280;6027;48.576;9.180;2023-02-01T10:49:17;97557.06;;;4.45;100.00
11936;BME280;6027;48.576;9.180;2023-02-01T10:54:35;97564.56;;;4.49;100.00
11936;BME280;6027;48.576;9.180;2023-02-01T10:57:07;97561.44;;;4.56;100.00
11936;BME280;6027;48.576;9.180;2023-02-01T10:59:32;97555.59;;;4.52;100.00
11936;BME280;6027;48.576;9.180;2023-02-01T11:02:13;97546.56;;;4.45;100.00
11936;BME280;6027;48.576;9.180;2023-02-01T11:04:41;97552.28;;;4.50;100.00
11936;BME280;6027;48.576;9.180;2023-02-01T11:09:49;97542.38;;;4.54;100.00
11936;BME280;6027;48.576;9.180;2023-02-01T11:12:41;97537.97;;;4.54;100.00
11936;BME280;6027;48.576;9.180;2023-02-01T11:15:19;97538.34;;;4.49;100.00
11936;BME280;6027;48.576;9.180;2023-02-01T11:17:47;97531.56;;;4.47;100.00
11936;BME280;6027;48.576;9.180;2023-02-01T11:20:18;97529.06;;;4.45;100.00
11936;BME280;6027;48.576;9.180;2023-02-01T11:22:50;97525.34;;;4.48;100.00
11936;BME280;6027;48.576;9.180;2023-02-01T11:25:18;97523.81;;;4.45;100.00
11936;BME280;6027;48.576;9.180;2023-02-01T11:27:44;97527.00;;;4.49;100.00
11936;BME280;6027;48.576;9.180;2023-02-01T11:30:16;97526.19;;;4.48;100.00
11936;BME280;6027;48.576;9.180;2023-02-01T11:32:46;97521.31;;;4.44;100.00
11936;BME280;6027;48.576;9.180;2023-02-01T11:35:17;97526.06;;;4.50;100.00
11936;BME280;6027;48.576;9.180;2023-02-01T11:37:43;97526.06;;;4.50;100.00
11936;BME280;6027;48.576;9.180;2023-02-01T11:40:35;97525.22;;;4.49;100.00
11936;BME280;6027;48.576;9.180;2023-02-01T11:43:13;97522.47;;;4.51;100.00
11936;BME280;6027;48.576;9.180;2023-02-01T11:45:40;97518.06;;;4.51;100.00
11936;BME280;6027;48.576;9.180;2023-02-01T11:48:15;97517.47;;;4.48;100.00
11936;BME280;6027;48.576;9.180;2023-02-01T11:53:56;97507.00;;;4.48;100.00
11936;BME280;6027;48.576;9.180;2023-02-01T11:56:35;97497.91;;;4.52;100.00
11936;BME280;6027;48.576;9.180;2023-02-01T12:02:30;97470.59;;;4.55;100.00
11936;BME280;6027;48.576;9.180;2023-02-01T12:05:18;97474.75;;;4.57;100.00
11936;BME280;6027;48.576;9.180;2023-02-01T12:08:12;97475.59;;;4.58;100.00
11936;BME280;6027;48.576;9.180;2023-02-01T12:11:35;97475.72;;;4.56;100.00
11936;BME280;6027;48.576;9.180;2023-02-01T12:16:37;97465.03;;;4.48;100.00
11936;BME280;6027;48.576;9.180;2023-02-01T12:22:14;97461.47;;;4.49;100.00
11936;BME280;6027;48.576;9.180;2023-02-01T12:32:45;97460.38;;;4.51;100.00
11936;BME280;6027;48.576;9.180;2023-02-01T12:38:23;97462.03;;;4.53;100.00
11936;BME280;6027;48.576;9.180;2023-02-01T12:46:32;97465.63;;;4.51;100.00
11936;BME280;6027;48.576;9.180;2023-02-01T12:51:40;97461.09;;;4.54;100.00
11936;BME280;6027;48.576;9.180;2023-02-01T12:54:31;97467.16;;;4.54;100.00
11936;BME280;6027;48.576;9.180;2023-02-01T12:57:02;97465.63;;;4.51;100.00
11936;BME280;6027;48.576;9.180;2023-02-01T12:59:37;97458.13;;;4.47;100.00
11936;BME280;6027;48.576;9.180;2023-02-01T13:05:18;97455.50;;;4.47;99.91
11936;BME280;6027;48.576;9.180;2023-02-01T13:07:54;97459.34;;;4.43;100.00
11936;BME280;6027;48.576;9.180;2023-02-01T13:10:33;97447.91;;;4.44;100.00
11936;BME280;6027;48.576;9.180;2023-02-01T13:13:11;97453.84;;;4.46;100.00
11936;BME280;6027;48.576;9.180;2023-02-01T13:18:51;97463.38;;;4.47;100.00
11936;BME280;6027;48.576;9.180;2023-02-01T13:21:25;97466.25;;;4.44;100.00
11936;BME280;6027;48.576;9.180;2023-02-01T13:23:53;97459.63;;;4.40;100.00
11936;BME280;6027;48.576;9.180;2023-02-01T13:28:47;97456.72;;;4.43;100.00
11936;BME280;6027;48.576;9.180;2023-02-01T13:42:03;97443.19;;;4.38;100.00
11936;BME280;6027;48.576;9.180;2023-02-01T13:44:41;97452.03;;;4.37;100.00
11936;BME280;6027;48.576;9.180;2023-02-01T13:47:23;97439.88;;;4.36;100.00
11936;BME280;6027;48.576;9.180;2023-02-01T13:49:49;97452.28;;;4.34;100.00
11936;BME280;6027;48.576;9.180;2023-02-01T13:52:37;97451.56;;;4.32;100.00
11936;BME280;6027;48.576;9.180;2023-02-01T13:57:40;97436.47;;;4.24;100.00
11936;BME280;6027;48.576;9.180;2023-02-01T14:10:57;97429.38;;;4.36;100.00
11936;BME280;6027;48.576;9.180;2023-02-01T14:13:39;97430.81;;;4.40;100.00
11936;BME280;6027;48.576;9.180;2023-02-01T14:16:15;97426.50;;;4.39;100.00
11936;BME280;6027;48.576;9.180;2023-02-01T14:21:29;97435.34;;;4.38;100.00
11936;BME280;6027;48.576;9.180;2023-02-01T14:26:27;97435.22;;;4.39;100.00
11936;BME280;6027;48.576;9.180;2023-02-01T14:29:19;97424.28;;;4.34;100.00
11936;BME280;6027;48.576;9.180;2023-02-01T14:32:17;97433.66;;;4.37;100.00
11936;BME280;6027;48.576;9.180;2023-02-01T14:37:35;97421.91;;;4.31;100.00
11936;BME280;6027;48.576;9.180;2023-02-01T14:42:47;97432.25;;;4.33;100.00
11936;BME280;6027;48.576;9.180;2023-02-01T14:47:46;97437.72;;;4.41;100.00
11936;BME280;6027;48.576;9.180;2023-02-01T14:50:32;97431.31;;;4.34;100.00
11936;BME280;6027;48.576;9.180;2023-02-01T15:01:05;97447.03;;;4.34;100.00
11936;BME280;6027;48.576;9.180;2023-02-01T15:03:51;97447.88;;;4.34;100.00
11936;BME280;6027;48.576;9.180;2023-02-01T15:12:40;97454.38;;;4.40;100.00
11936;BME280;6027;48.576;9.180;2023-02-01T15:15:05;97445.97;;;4.46;100.00
11936;BME280;6027;48.576;9.180;2023-02-01T15:17:28;97448.19;;;4.41;100.00
11936;BME280;6027;48.576;9.180;2023-02-01T15:20:19;97446.94;;;4.45;100.00
11936;BME280;6027;48.576;9.180;2023-02-01T15:23:06;97455.63;;;4.45;100.00
11936;BME280;6027;48.576;9.180;2023-02-01T15:25:35;97459.34;;;4.43;100.00
11936;BME280;6027;48.576;9.180;2023-02-01T15:28:02;97459.09;;;4.46;100.00
11936;BME280;6027;48.576;9.180;2023-02-01T15:30:33;97463.34;;;4.37;100.00
11936;BME280;6027;48.576;9.180;2023-02-01T15:33:15;97460.19;;;4.43;100.00
11936;BME280;6027;48.576;9.180;2023-02-01T15:38:34;97468.72;;;4.36;100.00
11936;BME280;6027;48.576;9.180;2023-02-01T15:46:39;97470.81;;;4.42;100.00
11936;BME280;6027;48.576;9.180;2023-02-01T15:51:46;97491.34;;;4.37;100.00
11936;BME280;6027;48.576;9.180;2023-02-01T15:54:19;97489.22;;;4.31;100.00
11936;BME280;6027;48.576;9.180;2023-02-01T15:56:50;97491.47;;;4.35;100.00
11936;BME280;6027;48.576;9.180;2023-02-01T15:59:22;97483.47;;;4.37;100.00
11936;BME280;6027;48.576;9.180;2023-02-01T16:01:50;97481.13;;;4.34;100.00
11936;BME280;6027;48.576;9.180;2023-02-01T16:04:24;97489.81;;;4.34;100.00
11936;BME280;6027;48.576;9.180;2023-02-01T16:06:59;97485.41;;;4.35;100.00
11936;BME280;6027;48.576;9.180;2023-02-01T16:09:59;97492.44;;;4.34;100.00
11936;BME280;6027;48.576;9.180;2023-02-01T16:12:34;97493.00;;;4.38;100.00
11936;BME280;6027;48.576;9.180;2023-02-01T16:15:04;97486.94;;;4.37;100.00
11936;BME280;6027;48.576;9.180;2023-02-01T16:17:30;97489.44;;;4.39;100.00